Flight Track Log - Related Links

Times and Time Zones

All times are in EDT time to prevent confusion due to time zone crossing. See the UAL582 flight status page for this flight to view local times or setup timezone preferences in your user account.

Time Position Orientation Groundspeed Altitude Reporting Facility
EDT Latitude Longitude Course Direction KTS MPH feet Rate Location/Type
Thu 06:08:41 PM 43.7000 -79.5833 253° West 160 184 2,200  Level Toronto Center
Thu 06:09:41 PM 43.7500 -79.5333 36° Northeast 230 265 3,900 2,150 Climbing Toronto Center
Thu 06:10:41 PM 43.8000 -79.5667 334° Northwest 240 276 6,500 1,600 Climbing Toronto Center
Thu 06:11:41 PM 43.8000 -79.6500 270° West 250 288 7,100 250 Climbing Toronto Center
Thu 06:12:41 PM 43.7833 -79.7500 257° West 250 288 7,000 350 Descending Toronto Center
Thu 06:13:41 PM 43.7833 -79.8667 270° West 250 288 7,800 1,800 Climbing Toronto Center
Thu 06:14:00 PM 43.7242 -80.5925 253° West  Level FlightAware Approximate
Thu 06:14:41 PM 43.7833 -79.9500 270° West 260 299 10,600  Level Toronto Center
Thu 06:15:41 PM 43.7667 -80.0667 259° West 300 345 11,500 1,250 Climbing Toronto Center
Thu 06:16:41 PM 43.7667 -80.2167 270° West 360 414 13,100 1,900 Climbing Toronto Center
Thu 06:17:41 PM 43.7500 -80.3667 261° West 380 437 15,300 2,150 Climbing Toronto Center
Thu 06:18:41 PM 43.7333 -80.5167 261° West 400 460 17,400 2,100 Climbing Toronto Center
Thu 06:19:41 PM 43.7167 -80.6667 261° West 400 460 19,500 1,650 Climbing Toronto Center
Thu 06:20:41 PM 43.6833 -80.8167 253° West 400 460 20,700 1,550 Climbing Toronto Center
Thu 06:21:41 PM 43.6333 -80.9667 245° Southwest 410 472 22,600 1,300 Climbing Toronto Center
Thu 06:22:41 PM 43.6000 -81.1000 251° West 420 483 23,300 850 Climbing Toronto Center
Thu 06:23:41 PM 43.5667 -81.2833 256° West 430 495 24,300 1,000 Climbing Toronto Center
Thu 06:24:41 PM 43.5333 -81.4333 253° West 440 506 25,300 1,200 Climbing Toronto Center
Thu 06:25:41 PM 43.5000 -81.6167 256° West 440 506 26,700 1,300 Climbing Toronto Center
Thu 06:26:41 PM 43.5000 -81.7500 270° West 420 483 27,900 1,550 Climbing Toronto Center
Thu 06:27:41 PM 43.4667 -81.9333 256° West 410 472 29,800 1,850 Climbing Toronto Center
Thu 06:28:41 PM 43.5000 -82.0667 289° West 390 449 31,600 1,250 Climbing Toronto Center
Thu 06:29:41 PM 43.4833 -82.2333 262° West 400 460 32,300 553 Climbing Toronto Center
Thu 06:29:57 PM 43.4839 -82.2511 272° West 402 463 32,300 868 Level Cleveland Center
Thu 06:30:57 PM 43.4442 -82.3986 250° West 407 468 33,400 850 Climbing Cleveland Center
Thu 06:31:57 PM 43.4147 -82.5494 255° West 412 474 34,000 346 Climbing Cleveland Center
Thu 06:32:41 PM 43.3667 -82.6667 241° Southwest 410 472 34,000  Level Toronto Center
Thu 06:32:57 PM 43.3869 -82.6969 313° West 412 474 34,000  Level Cleveland Center
Thu 06:33:41 PM 43.3500 -82.8167 247° West 410 472 34,000  Level Toronto Center
Thu 06:33:57 PM 43.3572 -82.8444 290° West 412 474 34,000 -237 Level Cleveland Center
Thu 06:34:57 PM 43.3247 -82.9975 254° West 412 474 33,700 -500 Descending Cleveland Center
Thu 06:35:57 PM 43.2922 -83.1503 254° West 412 474 33,000 -350 Descending Cleveland Center
Thu 06:36:57 PM 43.2619 -83.2972 254° West 412 474 33,000  Level Cleveland Center
Thu 06:37:57 PM 43.2311 -83.4497 255° West 412 474 33,000  Level Cleveland Center
Thu 06:38:57 PM 43.2000 -83.6050 255° West 412 474 33,000 -50 Level Cleveland Center
Thu 06:39:57 PM 43.1689 -83.7600 255° West 412 474 32,900 -300 Descending Cleveland Center
Thu 06:40:57 PM 43.1356 -83.9092 253° West 412 474 32,400 -450 Descending Cleveland Center
Thu 06:41:57 PM 43.1019 -84.0581 253° West 412 474 32,000 -200 Descending Cleveland Center
Thu 06:42:57 PM 43.0681 -84.2125 253° West 412 474 32,000  Level Cleveland Center
Thu 06:43:57 PM 43.0356 -84.3756 255° West 412 474 32,000 -64 Level Cleveland Center
Thu 06:44:31 PM 43.0181 -84.4583 254° West 420 483 31,900 -375 Descending Chicago Center
Thu 06:45:33 PM 42.9850 -84.6114 254° West 421 484 31,400 -629 Descending Chicago Center
Thu 06:46:35 PM 42.9506 -84.7653 253° West 423 487 30,600 -672 Descending Chicago Center
Thu 06:47:38 PM 42.9167 -84.9219 254° West 429 494 30,000 -288 Descending Chicago Center
Thu 06:48:40 PM 42.8814 -85.0806 253° West 435 501 30,000 -484 Level Chicago Center
Thu 06:49:42 PM 42.8386 -85.2667 253° West 431 496 29,000 -1,113 Descending Chicago Center
Thu 06:50:44 PM 42.8053 -85.4114 253° West 410 472 27,700 -1,258 Descending Chicago Center
Thu 06:51:46 PM 42.7753 -85.5531 254° West 395 455 26,400 -1,210 Descending Chicago Center
Thu 06:52:48 PM 42.7831 -85.6958 274° West 392 451 25,200 -1,210 Descending Chicago Center
Thu 06:53:50 PM 42.8053 -85.8364 282° West 379 436 23,900 -1,258 Descending Chicago Center
Thu 06:54:52 PM 42.7622 -85.9689 246° West 383 441 22,600 -1,210 Descending Chicago Center
Thu 06:55:54 PM 42.7128 -86.0992 243° Southwest 386 444 21,400 -1,258 Descending Chicago Center
Thu 06:56:56 PM 42.6536 -86.2511 242° Southwest 379 436 20,000 -720 Descending Chicago Center
Thu 06:57:59 PM 42.6233 -86.3839 253° West 367 422 19,900 -624 Descending Chicago Center
Thu 06:59:01 PM 42.5983 -86.5161 256° West 362 417 18,700 -1,548 Descending Chicago Center
Thu 07:00:03 PM 42.5742 -86.6486 256° West 361 415 16,700 -1,984 Descending Chicago Center
Thu 07:01:05 PM 42.5483 -86.7778 255° West 357 411 14,600 -1,984 Descending Chicago Center
Thu 07:02:07 PM 42.5142 -86.8978 249° West 346 398 12,600 -2,081 Descending Chicago Center
Thu 07:03:09 PM 42.4764 -87.0386 250° West 333 383 10,300 -1,258 Descending Chicago Center
Thu 07:04:11 PM 42.4419 -87.1539 248° West 333 383 10,000 -290 Descending Chicago Center
Thu 07:05:13 PM 42.4119 -87.2658 250° West 321 369 9,700 -726 Descending Chicago Center
Thu 07:06:15 PM 42.3750 -87.3575 241° Southwest 287 330 8,500 -1,258 Descending Chicago Center
Thu 07:07:17 PM 42.3308 -87.4592 240° Southwest 285 328 7,100 -677 Descending Chicago Center
Thu 07:08:19 PM 42.2956 -87.5439 241° Southwest 284 327 7,100 -97 Level Chicago Center
Thu 07:09:21 PM 42.2431 -87.6286 230° Southwest 246 283 6,900 -677 Descending Chicago Center
Thu 07:10:23 PM 42.1908 -87.6803 216° Southwest 235 270 5,700 -1,161 Descending Chicago Center
Thu 07:11:25 PM 42.1419 -87.7378 221° Southwest 235 270 4,500 -1,113 Descending Chicago Center
Thu 07:12:00 PM 42.1000 -87.7667 207° Southwest 228 262 3,900 -891 Descending Chicago TRACON
Thu 07:13:06 PM 42.0667 -87.8167 228° Southwest 175 201 3,000 -1,100 Descending Chicago TRACON
Thu 07:14:00 PM 42.0333 -87.8667 228° Southwest 171 197 1,700 -851 Descending Chicago TRACON
Thu 07:15:34 PM 41.9781 -87.9150 213° Southwest 175 201 900 -511 Descending Chicago Center

Login

Don't have an account? Register now (free) for customized features, flight alerts, and more!